createdAt,value
2022-08-29T00:00:59.920Z,99.90
2022-08-29T00:03:30.850Z,99.90
2022-08-29T00:06:04.640Z,99.90
2022-08-29T00:08:35.518Z,99.90
2022-08-29T00:11:08.043Z,99.90
2022-08-29T00:13:39.131Z,99.90
2022-08-29T00:16:10.701Z,99.90
2022-08-29T00:18:42.031Z,99.90
2022-08-29T00:21:13.094Z,99.90
2022-08-29T00:23:47.156Z,99.90
2022-08-29T00:26:18.167Z,99.90
2022-08-29T00:28:49.149Z,99.90
2022-08-29T00:31:20.083Z,99.90
2022-08-29T00:33:51.303Z,99.90
2022-08-29T00:36:22.932Z,99.90
2022-08-29T00:38:54.204Z,99.90
2022-08-29T00:41:25.622Z,99.90
2022-08-29T00:43:56.654Z,99.90
2022-08-29T00:46:43.007Z,99.90
2022-08-29T00:49:46.190Z,99.90
2022-08-29T00:52:23.236Z,99.90
2022-08-29T00:54:55.975Z,99.90
2022-08-29T00:57:31.646Z,99.90
2022-08-29T01:00:05.825Z,99.90
2022-08-29T01:02:40.736Z,99.90
2022-08-29T01:05:19.942Z,99.90
2022-08-29T01:07:52.062Z,99.90
2022-08-29T01:10:41.948Z,99.90
2022-08-29T01:13:13.834Z,99.90
2022-08-29T01:15:46.579Z,99.90
2022-08-29T01:18:18.764Z,99.90
2022-08-29T01:21:20.003Z,99.90
2022-08-29T01:24:38.667Z,99.90
2022-08-29T01:27:12.496Z,99.90
2022-08-29T01:29:43.428Z,99.90
2022-08-29T01:32:14.666Z,99.90
2022-08-29T01:34:46.033Z,99.90
2022-08-29T01:37:17.554Z,99.90
2022-08-29T01:39:48.515Z,99.90
2022-08-29T01:42:22.658Z,99.90
2022-08-29T01:44:57.063Z,99.90
2022-08-29T01:47:34.315Z,99.90
2022-08-29T01:50:12.833Z,99.90
2022-08-29T01:52:43.927Z,99.90
2022-08-29T01:55:15.019Z,99.90
2022-08-29T01:57:45.914Z,99.90
2022-08-29T02:00:18.367Z,99.90
2022-08-29T02:02:49.299Z,99.90
2022-08-29T02:05:23.017Z,99.90
2022-08-29T02:07:54.295Z,99.90
2022-08-29T02:10:25.569Z,99.90
2022-08-29T02:12:57.064Z,99.90
2022-08-29T02:15:28.000Z,99.90
2022-08-29T02:17:58.844Z,99.90
2022-08-29T02:20:29.782Z,99.90
2022-08-29T02:23:01.052Z,99.90
2022-08-29T02:25:44.169Z,99.90
2022-08-29T02:28:17.145Z,99.90
2022-08-29T02:30:52.125Z,99.90
2022-08-29T02:33:28.982Z,99.90
2022-08-29T02:36:00.280Z,99.90
2022-08-29T02:38:32.389Z,99.90
2022-08-29T02:41:03.424Z,99.90
2022-08-29T02:43:34.595Z,99.90
2022-08-29T02:46:06.458Z,99.90
2022-08-29T02:48:37.357Z,99.90
2022-08-29T02:51:08.245Z,99.90
2022-08-29T02:53:39.184Z,99.90
2022-08-29T02:56:10.188Z,99.90
2022-08-29T02:58:45.561Z,99.90
2022-08-29T03:01:21.288Z,99.90
2022-08-29T03:03:52.890Z,99.90
2022-08-29T03:06:23.931Z,99.90
2022-08-29T03:08:54.998Z,99.90
2022-08-29T03:11:28.723Z,99.90
2022-08-29T03:13:59.581Z,99.90
2022-08-29T03:16:30.966Z,99.90
2022-08-29T03:19:01.870Z,99.90
2022-08-29T03:21:33.402Z,99.90
2022-08-29T03:24:04.562Z,99.90
2022-08-29T03:26:35.463Z,99.90
2022-08-29T03:29:06.507Z,99.90
2022-08-29T03:31:37.491Z,99.90
2022-08-29T03:34:08.677Z,99.90
2022-08-29T03:36:39.590Z,99.90
2022-08-29T03:39:10.627Z,99.90
2022-08-29T03:41:41.583Z,99.90
2022-08-29T03:44:12.886Z,99.90
2022-08-29T03:46:44.129Z,99.90
2022-08-29T03:49:15.669Z,99.90
2022-08-29T03:51:46.587Z,99.90
2022-08-29T03:54:17.754Z,99.90
2022-08-29T03:56:49.332Z,99.90
2022-08-29T03:59:20.520Z,99.90
2022-08-29T04:01:51.639Z,99.90
2022-08-29T04:04:41.250Z,99.90
2022-08-29T04:07:14.928Z,99.90
2022-08-29T04:09:45.860Z,99.90
2022-08-29T04:12:16.932Z,99.90
2022-08-29T04:14:47.844Z,99.90
2022-08-29T04:17:19.036Z,99.90
2022-08-29T04:19:50.213Z,99.90
2022-08-29T04:22:21.944Z,99.90
2022-08-29T04:24:53.499Z,99.90
2022-08-29T04:27:24.919Z,99.90
2022-08-29T04:29:55.801Z,99.90
2022-08-29T04:32:27.553Z,99.90
2022-08-29T04:34:59.305Z,99.90
2022-08-29T04:37:30.487Z,99.90
2022-08-29T04:40:02.073Z,99.90
2022-08-29T04:42:35.962Z,99.90
2022-08-29T04:45:09.864Z,99.90
2022-08-29T04:47:42.924Z,99.90
2022-08-29T04:50:18.350Z,99.90
2022-08-29T04:52:52.001Z,99.90
2022-08-29T04:55:25.508Z,99.90
2022-08-29T04:57:57.100Z,99.90
2022-08-29T05:00:30.408Z,99.90
2022-08-29T05:03:01.796Z,99.90
2022-08-29T05:05:32.715Z,99.90
2022-08-29T05:08:04.123Z,99.90
2022-08-29T05:10:35.060Z,99.90
2022-08-29T05:13:05.949Z,99.90
2022-08-29T05:15:39.132Z,99.90
2022-08-29T05:18:09.990Z,99.90
2022-08-29T05:20:43.223Z,99.90
2022-08-29T05:23:15.893Z,99.90
2022-08-29T05:25:56.874Z,99.90
2022-08-29T05:28:30.545Z,99.90
2022-08-29T05:31:02.117Z,99.90
2022-08-29T05:33:33.582Z,99.90
2022-08-29T05:36:04.856Z,99.90
2022-08-29T05:38:35.711Z,99.90
2022-08-29T05:41:07.661Z,99.90
2022-08-29T05:43:38.575Z,99.90
2022-08-29T05:46:10.692Z,99.90
2022-08-29T05:48:42.422Z,99.90
2022-08-29T05:51:21.767Z,99.90
2022-08-29T05:53:52.653Z,99.90
2022-08-29T05:56:26.475Z,99.90
2022-08-29T05:58:57.352Z,99.90
2022-08-29T06:01:32.933Z,99.90
2022-08-29T06:04:04.314Z,99.90
2022-08-29T06:06:35.393Z,99.90
2022-08-29T06:09:08.759Z,99.90
2022-08-29T06:11:39.796Z,99.90
2022-08-29T06:14:10.692Z,99.90
2022-08-29T06:16:41.903Z,99.90
2022-08-29T06:19:13.328Z,99.90
2022-08-29T06:21:44.178Z,99.90
2022-08-29T06:24:16.057Z,99.90
2022-08-29T06:26:46.956Z,99.90
2022-08-29T06:29:17.943Z,99.90
2022-08-29T06:31:48.836Z,99.90
2022-08-29T06:34:19.775Z,99.90
2022-08-29T06:36:51.436Z,99.90
2022-08-29T06:39:22.749Z,99.90
2022-08-29T06:41:53.609Z,99.90
2022-08-29T06:44:24.841Z,99.90
2022-08-29T06:46:55.698Z,99.90
2022-08-29T06:49:27.767Z,99.90
2022-08-29T06:51:59.387Z,99.90
2022-08-29T06:54:30.411Z,99.90
2022-08-29T06:57:01.392Z,99.90
2022-08-29T06:59:32.308Z,99.90
2022-08-29T07:02:03.336Z,99.90
2022-08-29T07:04:34.272Z,99.90
2022-08-29T07:07:06.093Z,99.90
2022-08-29T07:09:37.140Z,99.90
2022-08-29T07:12:08.143Z,99.90
2022-08-29T07:14:39.040Z,99.90
2022-08-29T07:17:09.921Z,99.90
2022-08-29T07:19:41.138Z,99.90
2022-08-29T07:22:12.076Z,99.90
2022-08-29T07:24:43.012Z,99.90
2022-08-29T07:27:15.235Z,99.90
2022-08-29T07:29:50.129Z,99.90
2022-08-29T07:32:25.669Z,99.90
2022-08-29T07:34:56.818Z,99.90
2022-08-29T07:37:27.775Z,99.90
2022-08-29T07:39:59.656Z,99.90
2022-08-29T07:42:30.630Z,99.90
2022-08-29T07:45:01.773Z,99.90
2022-08-29T07:47:32.993Z,99.90
2022-08-29T07:50:07.704Z,99.90
2022-08-29T07:52:38.633Z,99.90
2022-08-29T07:55:10.265Z,99.90
2022-08-29T07:57:41.228Z,99.90
2022-08-29T08:00:12.610Z,99.90
2022-08-29T08:02:43.485Z,99.90
2022-08-29T08:05:14.417Z,99.90
2022-08-29T08:07:45.933Z,99.90
2022-08-29T08:10:20.303Z,99.90
2022-08-29T08:12:51.742Z,99.90
2022-08-29T08:15:22.919Z,99.90
2022-08-29T08:17:53.772Z,99.90
2022-08-29T08:20:24.801Z,99.90
2022-08-29T08:22:55.668Z,99.90
2022-08-29T08:25:27.034Z,99.90
2022-08-29T08:27:58.888Z,99.90
2022-08-29T08:30:33.783Z,99.90
2022-08-29T08:33:06.735Z,99.90
2022-08-29T08:35:46.936Z,99.90
2022-08-29T08:38:18.784Z,99.90
2022-08-29T08:41:27.310Z,99.90
2022-08-29T08:44:07.297Z,99.90
2022-08-29T08:46:43.309Z,99.90
2022-08-29T08:50:06.788Z,99.90
2022-08-29T08:52:46.032Z,99.90
2022-08-29T08:55:56.155Z,99.90
2022-08-29T08:58:53.763Z,99.90
2022-08-29T09:01:27.859Z,99.90
2022-08-29T09:04:35.519Z,99.90
2022-08-29T09:07:46.760Z,99.90
2022-08-29T09:10:43.562Z,99.90
2022-08-29T09:13:50.579Z,99.90
2022-08-29T09:16:42.940Z,99.90
2022-08-29T09:19:17.374Z,99.90
2022-08-29T09:22:01.137Z,99.90
2022-08-29T09:24:53.953Z,99.90
2022-08-29T09:27:30.022Z,99.90
2022-08-29T09:30:24.682Z,99.90
2022-08-29T09:33:09.232Z,99.90
2022-08-29T09:35:47.398Z,99.90
2022-08-29T09:38:18.193Z,99.90
2022-08-29T09:41:07.958Z,99.90
2022-08-29T09:43:41.483Z,99.90
2022-08-29T09:46:23.361Z,99.90
2022-08-29T09:49:14.102Z,99.90
2022-08-29T09:51:48.744Z,99.90
2022-08-29T09:54:32.362Z,99.90
2022-08-29T09:57:14.508Z,99.90
2022-08-29T10:00:10.340Z,99.90
2022-08-29T10:02:50.742Z,99.90
2022-08-29T10:05:56.351Z,99.90
2022-08-29T10:08:38.108Z,99.90
2022-08-29T10:11:44.094Z,99.90
2022-08-29T10:14:30.103Z,99.90
2022-08-29T10:17:43.441Z,99.90
2022-08-29T10:20:14.665Z,99.90
2022-08-29T10:23:20.468Z,99.60
2022-08-29T10:25:51.831Z,99.50
2022-08-29T10:28:48.152Z,99.60
2022-08-29T10:32:04.791Z,99.50
2022-08-29T10:35:22.474Z,98.90
2022-08-29T10:38:33.957Z,98.70
2022-08-29T10:41:54.010Z,98.90
2022-08-29T10:44:50.446Z,97.70
2022-08-29T10:47:40.274Z,97.30
2022-08-29T10:50:45.769Z,97.20
2022-08-29T10:53:37.734Z,97.00
2022-08-29T10:56:27.670Z,97.20
2022-08-29T10:59:21.625Z,96.70
2022-08-29T11:02:01.273Z,96.20
2022-08-29T11:04:46.203Z,96.10
2022-08-29T11:07:29.402Z,95.80
2022-08-29T11:10:18.515Z,94.60
2022-08-29T11:13:10.640Z,94.50
2022-08-29T11:16:12.191Z,93.30
2022-08-29T11:18:50.998Z,92.60
2022-08-29T11:21:45.952Z,92.90
2022-08-29T11:24:21.058Z,92.10
2022-08-29T11:28:01.546Z,92.20
2022-08-29T11:31:00.621Z,91.10
2022-08-29T11:34:34.123Z,90.60
2022-08-29T11:37:54.089Z,90.10
2022-08-29T11:41:28.274Z,90.40
2022-08-29T11:44:37.544Z,89.40
2022-08-29T11:47:40.857Z,88.20
2022-08-29T11:50:15.356Z,88.70
2022-08-29T11:53:16.867Z,88.00
2022-08-29T11:56:12.774Z,87.60
2022-08-29T11:58:50.563Z,88.40
2022-08-29T12:01:37.894Z,87.40
2022-08-29T12:04:11.659Z,87.30
2022-08-29T12:07:01.489Z,87.00
2022-08-29T12:10:14.062Z,86.00
2022-08-29T12:12:51.259Z,84.60
2022-08-29T12:15:27.989Z,84.40
2022-08-29T12:18:22.136Z,84.50
2022-08-29T12:20:55.689Z,83.90
2022-08-29T12:23:35.353Z,83.70
2022-08-29T12:26:44.886Z,83.70
2022-08-29T12:29:44.780Z,82.80
2022-08-29T12:32:41.221Z,81.80
2022-08-29T12:35:38.380Z,80.50
2022-08-29T12:38:27.087Z,80.60
2022-08-29T12:41:27.605Z,80.70
2022-08-29T12:44:03.953Z,81.10
2022-08-29T12:46:40.965Z,81.20
2022-08-29T12:49:30.793Z,80.50
2022-08-29T12:52:07.403Z,78.20
2022-08-29T12:54:42.007Z,78.70
2022-08-29T12:57:22.232Z,79.60
2022-08-29T12:59:55.054Z,79.30
2022-08-29T13:02:35.062Z,80.80
2022-08-29T13:05:28.238Z,80.40
2022-08-29T13:08:16.062Z,78.80
2022-08-29T13:11:13.474Z,79.20
2022-08-29T13:13:44.436Z,79.00
2022-08-29T13:16:35.865Z,77.30
2022-08-29T13:19:20.724Z,78.40
2022-08-29T13:22:02.931Z,77.30
2022-08-29T13:24:33.905Z,77.20
2022-08-29T13:27:09.157Z,77.70
2022-08-29T13:29:43.318Z,76.60
2022-08-29T13:32:18.923Z,77.60
2022-08-29T13:35:15.511Z,77.50
2022-08-29T13:38:18.429Z,77.30
2022-08-29T13:40:58.383Z,77.80
2022-08-29T13:43:43.315Z,78.60
2022-08-29T13:46:25.807Z,79.00
2022-08-29T13:49:03.045Z,79.30
2022-08-29T13:51:33.958Z,80.20
2022-08-29T13:54:04.908Z,79.60
2022-08-29T13:59:11.889Z,79.60
2022-08-29T14:04:38.561Z,80.90
2022-08-29T14:07:19.251Z,80.50
2022-08-29T14:09:51.443Z,81.30
2022-08-29T14:12:32.865Z,78.90
2022-08-29T14:15:12.664Z,79.10
2022-08-29T14:17:45.793Z,78.90
2022-08-29T14:20:18.522Z,78.10
2022-08-29T14:22:49.434Z,78.10
2022-08-29T14:25:21.827Z,78.00
2022-08-29T14:27:53.585Z,77.60
2022-08-29T14:30:25.172Z,76.20
2022-08-29T14:32:56.169Z,76.40
2022-08-29T14:35:31.892Z,75.70
2022-08-29T14:38:11.164Z,73.80
2022-08-29T14:40:45.261Z,74.30
2022-08-29T14:43:18.755Z,72.80
2022-08-29T14:45:52.443Z,72.90
2022-08-29T14:48:23.578Z,72.40
2022-08-29T14:50:54.430Z,71.90
2022-08-29T14:53:34.944Z,70.50
2022-08-29T14:56:14.125Z,70.90
2022-08-29T14:58:52.219Z,70.60
2022-08-29T15:01:26.171Z,70.50
2022-08-29T15:03:57.123Z,70.00
2022-08-29T15:06:27.998Z,69.10
2022-08-29T15:09:01.719Z,69.40
2022-08-29T15:11:32.932Z,68.70
2022-08-29T15:14:06.894Z,68.60
2022-08-29T15:16:38.784Z,67.80
2022-08-29T15:22:00.990Z,66.90
2022-08-29T15:24:32.539Z,66.70
2022-08-29T15:27:07.278Z,65.50
2022-08-29T15:29:40.859Z,65.60
2022-08-29T15:32:13.109Z,66.40
2022-08-29T15:34:44.085Z,66.80
2022-08-29T15:37:18.073Z,67.00
2022-08-29T15:39:54.607Z,68.50
2022-08-29T15:42:30.341Z,66.90
2022-08-29T15:45:07.657Z,65.80
2022-08-29T15:47:40.632Z,66.60
2022-08-29T15:50:17.770Z,65.60
2022-08-29T15:52:48.656Z,66.10
2022-08-29T15:55:20.699Z,65.90
2022-08-29T15:57:52.986Z,66.80
2022-08-29T16:00:30.271Z,66.90
2022-08-29T16:03:03.913Z,67.30
2022-08-29T16:05:40.938Z,67.90
2022-08-29T16:08:16.434Z,68.50
2022-08-29T16:10:47.809Z,70.10
2022-08-29T16:13:18.727Z,70.10
2022-08-29T16:15:53.652Z,69.90
2022-08-29T16:18:25.551Z,70.50
2022-08-29T16:20:56.950Z,69.40
2022-08-29T16:23:28.356Z,69.60
2022-08-29T16:25:59.715Z,68.90
2022-08-29T16:28:31.969Z,68.70
2022-08-29T16:31:04.877Z,68.80
2022-08-29T16:33:35.807Z,68.10
2022-08-29T16:36:07.062Z,69.30
2022-08-29T16:38:39.589Z,70.20
2022-08-29T16:41:15.810Z,71.20
2022-08-29T16:43:52.056Z,68.00
2022-08-29T16:46:26.319Z,68.20
2022-08-29T16:49:01.994Z,67.70
2022-08-29T16:51:33.064Z,68.70
2022-08-29T16:54:04.142Z,67.20
2022-08-29T16:56:35.271Z,68.10
2022-08-29T16:59:06.566Z,69.50
2022-08-29T17:01:45.191Z,70.10
2022-08-29T17:04:27.736Z,69.90
2022-08-29T17:06:58.802Z,70.00
2022-08-29T17:09:30.243Z,69.60
2022-08-29T17:12:03.453Z,69.70
2022-08-29T17:14:34.563Z,70.00
2022-08-29T17:17:05.641Z,70.30
2022-08-29T17:19:36.607Z,69.80
2022-08-29T17:22:08.204Z,70.10
2022-08-29T17:24:46.357Z,71.00
2022-08-29T17:27:21.299Z,71.00
2022-08-29T17:29:53.434Z,71.10
2022-08-29T17:32:28.433Z,72.30
2022-08-29T17:34:59.360Z,74.40
2022-08-29T17:37:36.066Z,73.80
2022-08-29T17:40:09.598Z,76.70
2022-08-29T17:42:41.326Z,75.90
2022-08-29T17:45:15.404Z,75.50
2022-08-29T17:47:46.252Z,75.90
2022-08-29T17:50:17.234Z,75.70
2022-08-29T17:52:48.358Z,76.70
2022-08-29T17:55:20.085Z,77.10
2022-08-29T17:57:50.956Z,77.10
2022-08-29T18:00:24.433Z,77.40
2022-08-29T18:02:55.374Z,78.30
2022-08-29T18:05:26.652Z,79.90
2022-08-29T18:07:57.596Z,80.10
2022-08-29T18:10:28.704Z,80.10
2022-08-29T18:12:59.579Z,80.40
2022-08-29T18:15:30.772Z,81.70
2022-08-29T18:18:06.267Z,81.80
2022-08-29T18:20:39.505Z,82.20
2022-08-29T18:23:10.549Z,83.10
2022-08-29T18:25:41.668Z,83.10
2022-08-29T18:28:12.568Z,83.40
2022-08-29T18:30:43.480Z,83.90
2022-08-29T18:33:15.190Z,84.10
2022-08-29T18:35:46.445Z,85.20
2022-08-29T18:38:18.179Z,85.70
2022-08-29T18:40:53.184Z,85.30
2022-08-29T18:43:24.863Z,86.10
2022-08-29T18:45:58.266Z,86.60
2022-08-29T18:48:30.783Z,86.70
2022-08-29T18:51:02.011Z,87.50
2022-08-29T18:53:32.951Z,86.70
2022-08-29T18:56:04.240Z,87.70
2022-08-29T18:58:35.731Z,87.00
2022-08-29T19:01:27.931Z,88.60
2022-08-29T19:04:03.022Z,89.40
2022-08-29T19:06:33.884Z,90.20
2022-08-29T19:09:04.792Z,90.20
2022-08-29T19:11:35.980Z,91.00
2022-08-29T19:14:07.202Z,91.40
2022-08-29T19:16:40.392Z,91.60
2022-08-29T19:19:13.296Z,91.60
2022-08-29T19:21:44.577Z,91.50
2022-08-29T19:24:15.447Z,91.80
2022-08-29T19:26:46.333Z,92.40
2022-08-29T19:29:17.774Z,92.80
2022-08-29T19:31:48.803Z,92.80
2022-08-29T19:34:19.816Z,92.50
2022-08-29T19:36:50.725Z,92.40
2022-08-29T19:39:22.491Z,92.30
2022-08-29T19:41:53.449Z,92.90
2022-08-29T19:44:24.698Z,93.20
2022-08-29T19:46:55.577Z,93.20
2022-08-29T19:49:26.858Z,93.10
2022-08-29T19:51:57.972Z,93.40
2022-08-29T19:54:28.943Z,93.30
2022-08-29T19:57:00.141Z,93.30
2022-08-29T19:59:31.928Z,93.60
2022-08-29T20:02:02.833Z,94.20
2022-08-29T20:04:33.895Z,93.60
2022-08-29T20:07:05.278Z,94.00
2022-08-29T20:09:36.496Z,95.50
2022-08-29T20:12:08.665Z,97.00
2022-08-29T20:14:40.020Z,94.40
2022-08-29T20:17:11.744Z,94.70
2022-08-29T20:19:43.192Z,94.80
2022-08-29T20:22:14.835Z,94.60
2022-08-29T20:24:49.845Z,95.30
2022-08-29T20:27:20.782Z,96.10
2022-08-29T20:29:52.131Z,96.70
2022-08-29T20:32:23.010Z,97.00
2022-08-29T20:34:54.008Z,97.00
2022-08-29T20:37:25.941Z,97.00
2022-08-29T20:39:58.483Z,97.10
2022-08-29T20:42:30.423Z,97.10
2022-08-29T20:45:01.482Z,97.20
2022-08-29T20:47:32.416Z,97.60
2022-08-29T20:50:03.730Z,97.80
2022-08-29T20:52:37.996Z,98.50
2022-08-29T20:55:09.137Z,98.40
2022-08-29T20:57:41.288Z,98.50
2022-08-29T21:00:13.166Z,98.80
2022-08-29T21:03:02.647Z,98.50
2022-08-29T21:05:43.194Z,98.90
2022-08-29T21:08:22.732Z,99.20
2022-08-29T21:10:56.210Z,99.10
2022-08-29T21:13:27.079Z,99.30
2022-08-29T21:15:58.927Z,99.60
2022-08-29T21:18:30.992Z,99.60
2022-08-29T21:21:01.897Z,99.90
2022-08-29T21:23:34.317Z,99.90
2022-08-29T21:26:05.507Z,99.90
2022-08-29T21:28:38.008Z,99.90
2022-08-29T21:31:13.464Z,99.90
2022-08-29T21:33:45.635Z,99.90
2022-08-29T21:36:21.161Z,99.90
2022-08-29T21:38:56.634Z,99.90
2022-08-29T21:41:30.575Z,99.80
2022-08-29T21:44:01.543Z,99.50
2022-08-29T21:46:36.786Z,99.90
2022-08-29T21:49:10.087Z,99.90
2022-08-29T21:51:41.407Z,99.90
2022-08-29T21:54:14.378Z,99.90
2022-08-29T21:56:46.573Z,99.90
2022-08-29T21:59:19.161Z,99.90
2022-08-29T22:01:54.605Z,99.90
2022-08-29T22:04:28.166Z,99.90
2022-08-29T22:06:59.900Z,99.90
2022-08-29T22:09:31.299Z,99.90
2022-08-29T22:12:03.796Z,99.90
2022-08-29T22:14:53.189Z,99.90
2022-08-29T22:17:24.060Z,99.90
2022-08-29T22:19:55.354Z,99.90
2022-08-29T22:22:26.287Z,99.90
2022-08-29T22:24:57.240Z,99.90
2022-08-29T22:27:28.143Z,99.90
2022-08-29T22:29:59.403Z,99.90
2022-08-29T22:32:35.491Z,99.90
2022-08-29T22:35:10.852Z,99.90
2022-08-29T22:37:42.427Z,99.90
2022-08-29T22:40:17.517Z,99.90
2022-08-29T22:42:48.492Z,99.90
2022-08-29T22:45:19.870Z,99.90
2022-08-29T22:47:51.018Z,99.90
2022-08-29T22:50:25.134Z,99.90
2022-08-29T22:52:58.271Z,99.90
2022-08-29T22:58:00.793Z,99.90
2022-08-29T23:00:31.675Z,99.90
2022-08-29T23:03:03.347Z,99.90
2022-08-29T23:05:34.368Z,99.90
2022-08-29T23:08:05.268Z,99.90
2022-08-29T23:10:36.375Z,99.90
2022-08-29T23:13:07.307Z,99.90
2022-08-29T23:15:38.833Z,99.90
2022-08-29T23:18:09.815Z,99.90
2022-08-29T23:20:40.711Z,99.90
2022-08-29T23:23:11.755Z,99.90
2022-08-29T23:25:42.733Z,99.90
2022-08-29T23:28:13.563Z,99.90
2022-08-29T23:30:47.121Z,99.90
2022-08-29T23:33:18.546Z,99.90
2022-08-29T23:35:49.427Z,99.90
2022-08-29T23:38:20.351Z,99.90
2022-08-29T23:40:53.576Z,99.90
2022-08-29T23:43:25.333Z,99.90
2022-08-29T23:45:56.917Z,99.90
2022-08-29T23:48:29.489Z,99.90
2022-08-29T23:51:05.753Z,99.90
2022-08-29T23:53:36.924Z,99.90
2022-08-29T23:56:12.534Z,99.90
2022-08-29T23:58:43.955Z,99.90
